createdAt,value
2018-03-17T00:00:35.234Z,80.30
2018-03-17T00:03:38.535Z,83.30
2018-03-17T00:06:42.642Z,83.70
2018-03-17T00:09:45.952Z,83.70
2018-03-17T00:12:50.030Z,82.50
2018-03-17T00:15:53.354Z,82.60
2018-03-17T00:18:56.655Z,83.40
2018-03-17T00:21:59.975Z,84.10
2018-03-17T00:25:03.285Z,83.70
2018-03-17T00:28:06.603Z,82.40
2018-03-17T00:31:09.903Z,82.50
2018-03-17T00:34:13.226Z,82.40
2018-03-17T00:37:16.541Z,81.20
2018-03-17T00:40:20.624Z,81.00
2018-03-17T00:43:23.936Z,80.90
2018-03-17T00:46:27.260Z,82.00
2018-03-17T00:49:30.563Z,83.00
2018-03-17T00:52:33.895Z,83.80
2018-03-17T00:55:37.190Z,84.90
2018-03-17T00:58:40.507Z,84.40
2018-03-17T01:01:43.851Z,84.40
2018-03-17T01:04:47.154Z,83.90
2018-03-17T01:07:50.476Z,82.70
2018-03-17T01:10:53.783Z,83.00
2018-03-17T01:13:57.104Z,82.20
2018-03-17T01:17:00.417Z,82.00
2018-03-17T01:20:04.478Z,81.70
2018-03-17T01:23:07.790Z,81.60
2018-03-17T01:26:11.086Z,81.80
2018-03-17T01:29:14.401Z,82.60
2018-03-17T01:32:17.702Z,83.40
2018-03-17T01:35:21.798Z,85.50
2018-03-17T01:38:25.098Z,85.40
2018-03-17T01:41:28.415Z,86.40
2018-03-17T01:44:32.495Z,85.30
2018-03-17T01:47:35.806Z,85.30
2018-03-17T01:50:39.110Z,84.30
2018-03-17T01:53:42.430Z,84.10
2018-03-17T01:56:46.490Z,84.00
2018-03-17T01:59:49.823Z,83.90
2018-03-17T02:02:53.120Z,84.40
2018-03-17T02:05:56.439Z,84.50
2018-03-17T02:08:59.756Z,83.80
2018-03-17T02:12:03.060Z,83.40
2018-03-17T02:15:06.376Z,84.50
2018-03-17T02:18:09.678Z,82.70
2018-03-17T02:21:12.998Z,82.60
2018-03-17T02:24:16.303Z,82.60
2018-03-17T02:27:19.639Z,84.40
2018-03-17T02:30:22.944Z,85.20
2018-03-17T02:33:26.263Z,84.60
2018-03-17T02:36:29.605Z,84.80
2018-03-17T02:39:32.913Z,83.30
2018-03-17T02:42:36.236Z,83.20
2018-03-17T02:45:39.547Z,83.40
2018-03-17T02:48:42.869Z,83.40
2018-03-17T02:51:46.166Z,83.40
2018-03-17T02:54:50.246Z,82.80
2018-03-17T02:57:53.546Z,82.80
2018-03-17T03:00:56.866Z,82.60
2018-03-17T03:04:00.186Z,79.70
2018-03-17T03:07:04.271Z,78.20
2018-03-17T03:10:07.596Z,78.10
2018-03-17T03:13:11.695Z,77.80
2018-03-17T03:16:14.994Z,77.80
2018-03-17T03:19:19.074Z,80.50
2018-03-17T03:22:22.391Z,80.40
2018-03-17T03:25:25.722Z,79.70
2018-03-17T03:28:29.023Z,79.40
2018-03-17T03:31:32.363Z,80.30
2018-03-17T03:34:35.658Z,79.20
2018-03-17T03:37:38.986Z,78.90
2018-03-17T03:40:43.055Z,79.80
2018-03-17T03:43:46.386Z,79.70
2018-03-17T03:46:49.683Z,80.20
2018-03-17T03:49:52.998Z,79.70
2018-03-17T03:52:57.116Z,80.10
2018-03-17T03:56:00.399Z,80.10
2018-03-17T03:59:04.486Z,79.80
2018-03-17T04:02:07.807Z,79.60
2018-03-17T04:05:11.128Z,78.90
2018-03-17T04:08:14.455Z,78.00
2018-03-17T04:11:19.421Z,77.50
2018-03-17T04:14:22.746Z,76.80
2018-03-17T04:17:26.830Z,77.10
2018-03-17T04:20:30.177Z,77.10
2018-03-17T04:23:33.486Z,77.50
2018-03-17T04:26:36.819Z,77.20
2018-03-17T04:29:40.130Z,77.90
2018-03-17T04:32:43.451Z,77.20
2018-03-17T04:35:47.535Z,77.10
2018-03-17T04:38:50.851Z,77.10
2018-03-17T04:41:59.358Z,77.10
2018-03-17T04:45:10.496Z,77.10
2018-03-17T04:48:14.671Z,77.10
2018-03-17T04:51:18.099Z,76.60
2018-03-17T04:54:21.932Z,76.80
2018-03-17T05:00:34.883Z,77.00
2018-03-17T05:03:38.218Z,77.40
2018-03-17T05:06:41.532Z,76.10
2018-03-17T05:09:44.872Z,76.80
2018-03-17T05:12:48.220Z,76.10
2018-03-17T05:15:51.549Z,76.50
2018-03-17T05:18:54.927Z,76.50
2018-03-17T05:21:58.282Z,76.70
2018-03-17T05:25:02.412Z,76.80
2018-03-17T05:28:06.516Z,78.00
2018-03-17T05:31:10.637Z,83.70
2018-03-17T05:34:15.198Z,83.60
2018-03-17T05:37:18.548Z,83.50
2018-03-17T05:40:21.874Z,82.80
2018-03-17T05:43:37.948Z,84.20
2018-03-17T05:46:56.186Z,82.90
2018-03-17T05:50:03.574Z,82.30
2018-03-17T05:53:10.700Z,80.40
2018-03-17T05:56:14.504Z,80.40
2018-03-17T05:59:21.448Z,79.30
2018-03-17T06:02:26.548Z,77.20
2018-03-17T06:05:32.788Z,77.30
2018-03-17T06:08:36.316Z,77.90
2018-03-17T06:11:41.352Z,78.20
2018-03-17T06:14:48.023Z,78.60
2018-03-17T06:17:58.966Z,78.80
2018-03-17T06:21:05.283Z,79.50
2018-03-17T06:24:13.711Z,79.90
2018-03-17T06:27:21.283Z,82.50
2018-03-17T06:30:26.395Z,86.40
2018-03-17T06:33:30.825Z,87.00
2018-03-17T06:36:38.206Z,85.30
2018-03-17T06:39:44.095Z,83.60
2018-03-17T06:42:49.287Z,84.50
2018-03-17T06:45:55.249Z,83.10
2018-03-17T06:49:00.203Z,87.10
2018-03-17T06:52:17.509Z,83.30
2018-03-17T06:55:21.901Z,83.40
2018-03-17T06:58:25.234Z,81.80
2018-03-17T07:01:29.303Z,81.20
2018-03-17T07:04:32.618Z,81.20
2018-03-17T07:07:35.910Z,80.50
2018-03-17T07:10:39.235Z,81.50
2018-03-17T07:13:43.335Z,80.30
2018-03-17T07:16:47.407Z,79.40
2018-03-17T07:19:50.759Z,79.40
2018-03-17T07:22:54.039Z,76.90
2018-03-17T07:25:57.358Z,78.40
2018-03-17T07:29:00.662Z,76.80
2018-03-17T07:32:04.022Z,76.50
2018-03-17T07:35:07.302Z,76.00
2018-03-17T07:38:10.627Z,75.70
2018-03-17T07:41:14.722Z,76.00
2018-03-17T07:44:18.042Z,75.90
2018-03-17T07:47:22.135Z,77.30
2018-03-17T07:50:25.435Z,77.30
2018-03-17T07:53:28.759Z,75.20
2018-03-17T07:56:32.828Z,77.90
2018-03-17T07:59:36.163Z,77.80
2018-03-17T08:02:40.235Z,77.10
2018-03-17T08:05:43.558Z,77.10
2018-03-17T08:08:46.859Z,77.40
2018-03-17T08:11:50.178Z,78.60
2018-03-17T08:14:53.510Z,80.90
2018-03-17T08:17:56.811Z,80.40
2018-03-17T08:21:00.138Z,78.10
2018-03-17T08:24:03.447Z,79.00
2018-03-17T08:27:07.539Z,80.30
2018-03-17T08:30:10.847Z,80.30
2018-03-17T08:33:14.174Z,87.10
2018-03-17T08:36:17.480Z,91.50
2018-03-17T08:39:20.798Z,91.90
2018-03-17T08:42:24.111Z,90.20
2018-03-17T08:45:27.446Z,87.10
2018-03-17T08:48:31.514Z,84.60
2018-03-17T08:51:34.830Z,84.60
2018-03-17T08:54:38.135Z,83.70
2018-03-17T08:57:42.260Z,80.30
2018-03-17T09:00:46.336Z,81.90
2018-03-17T09:03:49.664Z,81.90
2018-03-17T09:06:53.011Z,79.70
2018-03-17T09:09:56.315Z,78.60
2018-03-17T09:12:59.634Z,78.70
2018-03-17T09:16:02.946Z,83.50
2018-03-17T09:19:06.278Z,86.80
2018-03-17T09:22:09.583Z,85.90
2018-03-17T09:25:12.918Z,83.20
2018-03-17T09:28:16.235Z,80.40
2018-03-17T09:31:19.564Z,78.00
2018-03-17T09:34:22.894Z,79.00
2018-03-17T09:37:26.202Z,75.90
2018-03-17T09:40:29.538Z,78.60
2018-03-17T09:43:33.607Z,80.80
2018-03-17T09:46:36.930Z,80.70
2018-03-17T09:49:40.257Z,80.70
2018-03-17T09:52:43.570Z,79.20
2018-03-17T09:55:46.882Z,80.20
2018-03-17T09:58:50.206Z,76.30
2018-03-17T10:01:53.502Z,74.50
2018-03-17T10:04:56.830Z,74.50
2018-03-17T10:08:00.895Z,72.40
2018-03-17T10:11:04.230Z,72.40
2018-03-17T10:14:08.298Z,68.20
2018-03-17T10:17:11.647Z,68.10
2018-03-17T10:20:15.719Z,68.60
2018-03-17T10:23:19.038Z,68.50
2018-03-17T10:26:22.347Z,64.00
2018-03-17T10:29:26.474Z,63.40
2018-03-17T10:32:29.746Z,63.30
2018-03-17T10:35:33.076Z,66.90
2018-03-17T10:38:36.379Z,70.50
2018-03-17T10:41:39.697Z,66.80
2018-03-17T10:44:43.018Z,69.40
2018-03-17T10:47:46.363Z,66.30
2018-03-17T10:50:49.655Z,66.70
2018-03-17T10:53:53.727Z,63.60
2018-03-17T10:56:57.068Z,63.60
2018-03-17T11:00:00.374Z,63.40
2018-03-17T11:03:03.695Z,61.50
2018-03-17T11:06:07.068Z,60.80
2018-03-17T11:09:11.102Z,67.20
2018-03-17T11:12:14.419Z,67.10
2018-03-17T11:15:17.718Z,64.20
2018-03-17T11:18:21.050Z,59.80
2018-03-17T11:21:25.139Z,59.00
2018-03-17T11:24:28.454Z,58.90
2018-03-17T11:27:32.527Z,57.70
2018-03-17T11:30:35.850Z,57.60
2018-03-17T11:33:39.159Z,58.80
2018-03-17T11:36:44.078Z,59.80
2018-03-17T11:39:47.379Z,59.70
2018-03-17T11:42:50.703Z,59.40
2018-03-17T11:45:54.011Z,59.40
2018-03-17T11:48:57.331Z,57.50
2018-03-17T11:52:00.645Z,54.30
2018-03-17T11:55:03.976Z,56.70
2018-03-17T11:58:07.286Z,55.70
2018-03-17T12:01:11.636Z,56.70
2018-03-17T12:18:30.591Z,56.60
2018-03-17T12:21:33.918Z,55.10
2018-03-17T12:28:17.749Z,53.20
2018-03-17T13:01:11.512Z,53.50
2018-03-17T13:04:34.267Z,54.10
2018-03-17T13:15:13.628Z,54.50
2018-03-17T13:22:04.053Z,55.10
2018-03-17T13:25:07.432Z,54.90
2018-03-17T13:28:26.556Z,54.00
2018-03-17T13:31:30.193Z,54.70
2018-03-17T13:34:34.865Z,55.80
2018-03-17T13:41:28.169Z,55.70
2018-03-17T13:48:18.046Z,57.10
2018-03-17T14:43:32.206Z,56.30
2018-03-17T14:46:37.552Z,56.90
2018-03-17T14:50:22.658Z,56.00
2018-03-17T14:56:42.036Z,60.10
2018-03-17T14:59:52.701Z,59.60
2018-03-17T15:02:58.363Z,57.20
2018-03-17T15:09:37.274Z,59.90
2018-03-17T15:15:59.859Z,55.10
2018-03-17T15:19:09.890Z,55.10
2018-03-17T15:22:19.649Z,53.00
2018-03-17T15:25:27.001Z,51.90
2018-03-17T15:28:35.493Z,51.80
2018-03-17T15:31:59.313Z,54.10
2018-03-17T15:35:09.606Z,54.00
2018-03-17T15:38:14.643Z,53.70
2018-03-17T15:41:33.933Z,53.60
2018-03-17T15:44:58.108Z,53.60
2018-03-17T15:48:12.672Z,56.40
2018-03-17T15:51:28.285Z,56.80
2018-03-17T15:54:40.400Z,57.90
2018-03-17T15:57:47.590Z,59.10
2018-03-17T16:01:00.614Z,60.10
2018-03-17T16:04:11.117Z,60.50
2018-03-17T16:07:18.197Z,60.30
2018-03-17T16:10:31.017Z,56.20
2018-03-17T16:13:39.089Z,54.00
2018-03-17T16:19:59.898Z,56.80
2018-03-17T16:23:13.488Z,59.20
2018-03-17T16:26:19.723Z,60.00
2018-03-17T16:29:28.442Z,61.30
2018-03-17T16:32:32.601Z,60.00
2018-03-17T16:35:40.452Z,61.30
2018-03-17T16:42:01.169Z,60.10
2018-03-17T16:45:10.300Z,59.40
2018-03-17T16:48:22.150Z,61.30
2018-03-17T16:51:41.224Z,61.30
2018-03-17T16:54:50.314Z,67.90
2018-03-17T17:04:51.669Z,62.00
2018-03-17T17:08:00.470Z,58.70
2018-03-17T17:11:11.112Z,59.10
2018-03-17T17:14:20.552Z,59.10
2018-03-17T17:17:27.236Z,60.70
2018-03-17T17:23:58.636Z,60.60
2018-03-17T17:27:08.629Z,59.70
2018-03-17T17:30:14.724Z,59.80
2018-03-17T17:33:25.148Z,59.60
2018-03-17T17:36:29.978Z,59.20
2018-03-17T17:42:54.544Z,57.50
2018-03-17T17:46:02.314Z,57.40
2018-03-17T17:49:11.223Z,57.30
2018-03-17T17:55:31.722Z,59.30
2018-03-17T17:58:38.246Z,60.30
2018-03-17T18:01:50.994Z,60.30
2018-03-17T18:04:55.154Z,61.20
2018-03-17T18:11:38.979Z,60.20
2018-03-17T18:26:02.925Z,57.90
2018-03-17T18:29:06.234Z,57.60
2018-03-17T18:32:09.659Z,59.10
2018-03-17T18:35:13.006Z,59.80
2018-03-17T18:38:16.334Z,59.60
2018-03-17T18:41:19.776Z,58.10
2018-03-17T18:44:23.908Z,59.10
2018-03-17T18:47:27.988Z,61.20
2018-03-17T18:50:31.306Z,61.20
2018-03-17T18:53:35.376Z,60.00
2018-03-17T18:56:38.747Z,60.00
2018-03-17T18:59:42.778Z,56.90
2018-03-17T19:06:14.481Z,56.90
2018-03-17T19:09:20.180Z,58.10
2018-03-17T19:12:32.491Z,55.60
2018-03-17T19:15:35.990Z,56.00
2018-03-17T19:18:44.470Z,54.30
2018-03-17T19:21:48.667Z,59.50
2018-03-17T19:24:55.821Z,59.50
2018-03-17T19:27:59.162Z,65.40
2018-03-17T19:31:02.508Z,63.70
2018-03-17T19:34:05.836Z,59.70
2018-03-17T19:40:19.557Z,55.30
2018-03-17T19:43:23.965Z,55.20
2018-03-17T19:46:30.222Z,56.70
2018-03-17T19:49:37.568Z,56.30
2018-03-17T19:52:48.677Z,56.40
2018-03-17T19:55:55.998Z,55.80
2018-03-17T19:59:04.805Z,55.80
2018-03-17T20:02:12.191Z,56.90
2018-03-17T20:05:18.301Z,56.00
2018-03-17T20:08:25.702Z,55.70
2018-03-17T20:11:32.779Z,56.30
2018-03-17T20:14:39.868Z,55.50
2018-03-17T20:17:45.002Z,55.20
2018-03-17T20:21:05.535Z,54.60
2018-03-17T20:24:10.745Z,54.90
2018-03-17T20:27:15.684Z,55.80
2018-03-17T20:30:22.336Z,57.00
2018-03-17T20:33:30.032Z,56.90
2018-03-17T20:36:35.144Z,56.80
2018-03-17T20:39:42.362Z,57.00
2018-03-17T20:42:46.553Z,56.60
2018-03-17T20:45:51.368Z,56.70
2018-03-17T20:48:57.445Z,56.10
2018-03-17T20:52:03.218Z,56.70
2018-03-17T20:55:10.961Z,56.70
2018-03-17T20:58:19.063Z,56.80
2018-03-17T21:05:02.664Z,56.50
2018-03-17T21:08:08.300Z,56.50
2018-03-17T21:18:24.008Z,55.70
2018-03-17T21:21:34.930Z,56.40
2018-03-17T21:27:59.986Z,57.10
2018-03-17T21:31:05.168Z,57.00
2018-03-17T21:34:20.637Z,57.30
2018-03-17T21:37:37.570Z,57.50
2018-03-17T21:40:43.991Z,57.60
2018-03-17T21:47:09.409Z,57.90
2018-03-17T21:50:26.028Z,57.40
2018-03-17T21:53:32.703Z,57.00
2018-03-17T21:56:42.755Z,57.10
2018-03-17T21:59:50.782Z,57.00
2018-03-17T22:02:55.878Z,57.00
2018-03-17T22:06:05.108Z,56.90
2018-03-17T22:09:11.690Z,56.90
2018-03-17T22:12:21.376Z,57.00
2018-03-17T22:15:27.875Z,57.00
2018-03-17T22:18:36.798Z,58.00
2018-03-17T22:21:41.349Z,58.30
2018-03-17T22:24:47.275Z,58.60
2018-03-17T22:27:50.935Z,58.70
2018-03-17T22:30:57.568Z,58.80
2018-03-17T22:34:03.460Z,59.10
2018-03-17T22:37:10.135Z,59.00
2018-03-17T22:40:21.435Z,59.60
2018-03-17T22:43:29.166Z,59.40
2018-03-17T22:46:40.310Z,59.10
2018-03-17T22:49:51.499Z,59.80
2018-03-17T22:53:05.076Z,59.40
2018-03-17T22:56:13.463Z,60.60
2018-03-17T22:59:20.250Z,60.20
2018-03-17T23:02:28.436Z,60.00
2018-03-17T23:05:34.370Z,60.70
2018-03-17T23:08:39.107Z,61.20
2018-03-17T23:11:44.152Z,61.90
2018-03-17T23:14:48.413Z,62.90
2018-03-17T23:17:54.709Z,62.00
2018-03-17T23:21:04.000Z,62.60
2018-03-17T23:24:14.373Z,63.50
2018-03-17T23:27:23.674Z,63.60
2018-03-17T23:30:29.110Z,63.50
2018-03-17T23:33:38.028Z,63.70
2018-03-17T23:36:43.120Z,63.50
2018-03-17T23:39:53.781Z,63.70
2018-03-17T23:43:03.312Z,63.60
2018-03-17T23:46:14.198Z,63.60
2018-03-17T23:49:18.452Z,63.60
2018-03-17T23:52:24.410Z,64.20
2018-03-17T23:55:29.693Z,63.30
2018-03-17T23:58:34.740Z,63.30
